Valentia Observatory, Ireland

2:50 PM GMT on February 08, 2016 (GMT +0000)
Cromane, Killorglin Co. Kerry | | Change Station
CLOSE
Current Station
Personal Weather Station
Location: Killorglin, CO. KERRY
Elevation: 13 ft
Nearby Weather Stations

Elev 13 ft 52.10 °N, 9.89 °W | Updated 2 minutes ago

Mostly Cloudy
Mostly Cloudy
44.8 °F
Feels Like 38 °F
N
15.0
Wind Variable Wind from WNW
Gusts 40.0 mph

Today
High -- | Low -- °F
--% Chance of Precip.
Yesterday
High -- | Low -- °F
Precip. -- in
Pressure 29.24 in
Visibility 6.2 miles
Clouds Scattered Clouds 2100 ft
Mostly Cloudy 4000 ft
Windchill 38 °F
Dew Point 37 °F
Humidity 74%
Rainfall 0.11 in
Snow Depth Not available.
8:09 AM 5:41 PM
Waning Crescent, 0% visible
METAR EIKY 081430Z 26019G30KT 9999 VCSH SCT021CB BKN040 07/03 Q0990
Pressure 29.24 in
Visibility 6.2 miles
Clouds Scattered Clouds 2100 ft
Mostly Cloudy 4000 ft
Windchill 38 °F
Dew Point 37 °F
Humidity 74%
Rainfall 0.11 in
Snow Depth Not available.
8:09 AM 5:41 PM
Waning Crescent, 0% visible
METAR EIKY 081430Z 26019G30KT 9999 VCSH SCT021CB BKN040 07/03 Q0990

10-Day Weather Forecast

Almanac

Astronomy

Feb. 08, 2016 Rise Set
Actual Time
Civil Twilight
Nautical Twilight
Astronomical Twilight
Moon
Length of Visible Light
Length of Day
Tomorrow will be .
, % of the Moon is Illuminated

Today's Extremes

Country Highs Country Lows

Community

WunderPhotos

Upload Photos

1,891,437 photos uploaded!

WunderBlog® & News

Nearby

Air Quality

  Air Quality AQ Index Pollutant
Not available.

Snow Depth

Station Depth Elevation

Earthquake Activity

City Distance Mag. Time & Date
Minimum magnitude displayed is 2.5.

Coastal Water Temperatures

Place Temperature

Stations

Nearby Weather Stations

Station Location Temp. Windchill Dew Point Humidity Wind Precip. Elev Updated Type